Time;durP1;ratioP1;P1;durP2;ratioP2;P2;SDS_P1;SDS_P2;PMS_P1;PMS_P2;Temp;Humidity;BMP_temperature;BMP_pressure;BME280_temperature;BME280_humidity;BME280_pressure;Samples;Min_cycle;Max_cycle;Signal;HPM_P1;HPM_P2
2023/08/31 00:04:31;;;;;;;3.63;1.60;;;;;;;;;;10516336;28;20479;-87
2023/08/31 00:09:42;;;;;;;2.45;1.77;;;;;;;;;;10507437;28;20495;-87
2023/08/31 00:14:47;;;;;;;4.28;2.00;;;;;;;;;;10526044;28;20086;-88
2023/08/31 00:19:54;;;;;;;4.95;2.15;;;;;;;;;;10526982;28;20122;-86
2023/08/31 00:25:17;;;;;;;3.10;2.10;;;;;;;;;;10505779;28;20389;-87
2023/08/31 00:30:28;;;;;;;2.15;1.27;;;;;;;;;;10524735;28;20477;-86
2023/08/31 00:35:31;;;;;;;3.70;2.17;;;;;;;;;;10522075;28;20045;-86
2023/08/31 00:40:51;;;;;;;3.20;1.75;;;;;;;;;;10533108;28;20040;-87
2023/08/31 00:45:58;;;;;;;1.90;1.40;;;;;;;;;;10531128;28;20036;-89
2023/08/31 00:51:06;;;;;;;6.50;1.67;;;;;;;;;;10524107;28;20042;-88
2023/08/31 00:56:13;;;;;;;2.10;1.50;;;;;;;;;;10525687;28;20046;-89
2023/08/31 01:01:20;;;;;;;3.55;2.28;;;;;;;;;;10514231;28;20036;-88
2023/08/31 01:06:31;;;;;;;3.85;1.85;;;;;;;;;;10531055;28;20143;-89
2023/08/31 01:11:52;;;;;;;1.88;1.15;;;;;;;;;;10531490;28;20058;-89
2023/08/31 01:17:08;;;;;;;6.82;2.67;;;;;;;;;;10533463;28;20047;-88
2023/08/31 01:22:17;;;;;;;3.90;1.52;;;;;;;;;;10526498;28;20028;-90
2023/08/31 01:27:32;;;;;;;2.65;1.85;;;;;;;;;;10528976;28;20048;-90
2023/08/31 01:32:38;;;;;;;3.92;2.00;;;;;;;;;;10500534;28;20043;-88
2023/08/31 01:37:45;;;;;;;3.70;2.38;;;;;;;;;;10517617;28;20128;-87
2023/08/31 01:43:10;;;;;;;4.85;2.35;;;;;;;;;;10503893;28;20048;-88
2023/08/31 01:48:19;;;;;;;3.13;1.77;;;;;;;;;;10519574;28;20060;-87
2023/08/31 01:53:25;;;;;;;5.75;1.75;;;;;;;;;;10515781;28;20036;-88
2023/08/31 01:58:38;;;;;;;4.40;2.00;;;;;;;;;;10500740;28;20576;-89
2023/08/31 02:03:44;;;;;;;4.05;1.42;;;;;;;;;;10522161;28;20138;-89
2023/08/31 02:09:03;;;;;;;5.45;1.70;;;;;;;;;;10516270;28;20048;-89
2023/08/31 02:14:19;;;;;;;2.85;1.50;;;;;;;;;;10506259;28;20135;-87
2023/08/31 02:19:38;;;;;;;4.63;2.22;;;;;;;;;;10502987;28;20127;-88
2023/08/31 02:24:52;;;;;;;4.13;2.40;;;;;;;;;;10518047;28;20556;-88
2023/08/31 02:30:04;;;;;;;4.60;2.00;;;;;;;;;;10524505;28;20044;-89
2023/08/31 02:35:12;;;;;;;2.97;2.08;;;;;;;;;;10497465;28;20048;-90
2023/08/31 02:40:17;;;;;;;3.97;2.25;;;;;;;;;;10513601;28;20047;-85
2023/08/31 02:45:26;;;;;;;4.38;2.33;;;;;;;;;;10517025;28;20051;-85
2023/08/31 02:50:29;;;;;;;3.97;2.70;;;;;;;;;;10498308;28;20048;-86
2023/08/31 02:55:33;;;;;;;5.28;2.80;;;;;;;;;;10484975;28;20052;-84
2023/08/31 03:00:50;;;;;;;6.00;2.63;;;;;;;;;;10499519;28;20601;-85
2023/08/31 03:05:56;;;;;;;5.20;2.83;;;;;;;;;;10493133;28;21305;-86
2023/08/31 03:11:00;;;;;;;4.85;2.50;;;;;;;;;;10522816;28;20409;-87
2023/08/31 03:16:08;;;;;;;4.40;2.80;;;;;;;;;;10517881;28;20123;-86
2023/08/31 03:21:16;;;;;;;5.32;2.50;;;;;;;;;;10505250;28;20036;-84
2023/08/31 03:26:23;;;;;;;4.97;2.60;;;;;;;;;;10489615;28;20319;-85
2023/08/31 03:31:27;;;;;;;6.53;2.80;;;;;;;;;;10502390;28;20120;-85
2023/08/31 03:36:35;;;;;;;3.80;2.10;;;;;;;;;;10506321;28;20052;-86
2023/08/31 03:41:39;;;;;;;5.82;2.90;;;;;;;;;;10518266;28;20058;-86
2023/08/31 03:46:49;;;;;;;5.75;3.15;;;;;;;;;;10502758;28;20200;-85
2023/08/31 03:51:53;;;;;;;6.68;2.80;;;;;;;;;;10521872;28;20055;-84
2023/08/31 03:56:57;;;;;;;2.75;1.58;;;;;;;;;;10524027;28;20040;-85
2023/08/31 04:02:08;;;;;;;3.42;1.35;;;;;;;;;;10529032;28;20095;-88
2023/08/31 04:07:14;;;;;;;2.83;1.77;;;;;;;;;;10541623;28;20097;-87
2023/08/31 04:12:21;;;;;;;1.48;1.08;;;;;;;;;;10534460;28;20048;-85
2023/08/31 04:17:31;;;;;;;4.53;2.38;;;;;;;;;;10528580;28;20122;-84
2023/08/31 04:22:35;;;;;;;5.22;2.63;;;;;;;;;;10517021;28;20040;-84
2023/08/31 04:27:40;;;;;;;3.80;2.40;;;;;;;;;;10524857;28;20096;-85
2023/08/31 04:32:46;;;;;;;2.95;1.98;;;;;;;;;;10503869;28;20455;-86
2023/08/31 04:37:52;;;;;;;6.50;2.42;;;;;;;;;;10504825;28;20048;-85
2023/08/31 04:42:55;;;;;;;3.80;2.70;;;;;;;;;;10501330;28;20478;-85
2023/08/31 04:48:11;;;;;;;4.30;2.47;;;;;;;;;;10519226;28;20082;-84
2023/08/31 04:53:20;;;;;;;6.35;2.35;;;;;;;;;;10516240;28;20044;-84
2023/08/31 04:58:26;;;;;;;2.80;1.67;;;;;;;;;;10498547;28;20051;-84
2023/08/31 05:03:30;;;;;;;4.93;2.13;;;;;;;;;;10516895;28;20126;-84
2023/08/31 05:08:36;;;;;;;2.47;1.52;;;;;;;;;;10502852;28;20044;-84
2023/08/31 05:13:42;;;;;;;5.50;2.25;;;;;;;;;;10495299;28;20135;-84
2023/08/31 05:18:49;;;;;;;3.00;1.80;;;;;;;;;;10514438;28;20076;-85
2023/08/31 05:24:00;;;;;;;5.53;2.53;;;;;;;;;;10513433;28;20355;-85
2023/08/31 05:29:03;;;;;;;6.43;2.50;;;;;;;;;;10499152;28;20044;-84
2023/08/31 05:34:10;;;;;;;2.33;1.55;;;;;;;;;;10485143;28;20036;-83
2023/08/31 05:39:16;;;;;;;3.15;1.73;;;;;;;;;;10480794;28;20049;-83
2023/08/31 05:44:22;;;;;;;4.63;2.33;;;;;;;;;;10495328;28;20432;-86
2023/08/31 05:49:39;;;;;;;4.55;2.47;;;;;;;;;;10523515;28;20046;-87
2023/08/31 05:54:45;;;;;;;4.68;2.42;;;;;;;;;;10503091;28;20382;-87
2023/08/31 05:59:48;;;;;;;;;;;;;;;;;;10510464;28;20044;-85
2023/08/31 06:04:56;;;;;;;5.22;1.67;;;;;;;;;;10498402;28;19932;-88
2023/08/31 06:10:02;;;;;;;4.63;2.50;;;;;;;;;;10500694;28;20061;-86
2023/08/31 06:15:11;;;;;;;7.03;2.47;;;;;;;;;;10500767;28;20048;-85
2023/08/31 06:20:26;;;;;;;5.90;2.50;;;;;;;;;;10521300;28;20040;-87
2023/08/31 06:25:34;;;;;;;4.20;2.22;;;;;;;;;;10522029;28;20052;-87
2023/08/31 06:30:46;;;;;;;3.75;2.30;;;;;;;;;;10521635;28;20048;-87
2023/08/31 06:35:56;;;;;;;4.80;2.50;;;;;;;;;;10526599;28;20047;-88
2023/08/31 06:41:04;;;;;;;3.28;2.05;;;;;;;;;;10523669;28;20049;-88
2023/08/31 06:46:11;;;;;;;4.10;2.28;;;;;;;;;;10506935;28;20067;-87
2023/08/31 06:51:29;;;;;;;4.00;2.10;;;;;;;;;;10520433;28;20036;-86
2023/08/31 06:56:40;;;;;;;5.72;2.65;;;;;;;;;;10506040;28;20042;-85
2023/08/31 07:01:47;;;;;;;4.57;2.30;;;;;;;;;;10525405;28;20148;-86
2023/08/31 07:06:59;;;;;;;4.93;2.25;;;;;;;;;;10531493;28;20087;-87
2023/08/31 07:12:08;;;;;;;3.15;1.52;;;;;;;;;;10508592;28;20040;-85
2023/08/31 07:17:22;;;;;;;2.83;1.23;;;;;;;;;;10503171;28;20094;-86
2023/08/31 07:22:37;;;;;;;3.42;2.25;;;;;;;;;;10495755;28;20147;-89
2023/08/31 07:27:57;;;;;;;3.17;2.10;;;;;;;;;;10540799;28;20048;-89
2023/08/31 07:33:04;;;;;;;6.20;2.05;;;;;;;;;;10513944;28;20096;-86
2023/08/31 07:44:03;;;;;;;1.55;1.00;;;;;;;;;;10485105;27;20437;-85
2023/08/31 07:49:07;;;;;;;3.08;1.77;;;;;;;;;;10478241;28;20041;-85
2023/08/31 07:54:09;;;;;;;2.92;1.05;;;;;;;;;;10480853;28;20128;-86
2023/08/31 07:59:13;;;;;;;4.47;2.03;;;;;;;;;;10477942;28;20098;-87
2023/08/31 08:04:19;;;;;;;4.35;1.75;;;;;;;;;;10484086;28;20649;-85
2023/08/31 08:09:22;;;;;;;2.40;1.23;;;;;;;;;;10477906;28;20506;-87
2023/08/31 08:14:26;;;;;;;2.37;1.63;;;;;;;;;;10477775;28;20249;-86
2023/08/31 08:19:28;;;;;;;5.10;1.80;;;;;;;;;;10475659;28;20049;-87
2023/08/31 08:24:31;;;;;;;2.23;1.13;;;;;;;;;;10478895;28;20072;-89
2023/08/31 08:29:37;;;;;;;4.07;1.97;;;;;;;;;;10470932;28;20325;-82
2023/08/31 08:34:41;;;;;;;6.72;2.28;;;;;;;;;;10475537;28;20060;-81
2023/08/31 08:39:44;;;;;;;3.80;1.85;;;;;;;;;;10473896;28;20069;-81
2023/08/31 08:44:48;;;;;;;3.65;0.68;;;;;;;;;;10471611;28;20099;-82
2023/08/31 08:49:51;;;;;;;3.63;1.90;;;;;;;;;;10466825;28;20059;-79
2023/08/31 08:54:54;;;;;;;4.07;1.60;;;;;;;;;;10442070;28;20103;-79
2023/08/31 09:00:03;;;;;;;5.57;1.67;;;;;;;;;;10441328;28;20118;-81
2023/08/31 09:05:05;;;;;;;4.30;1.75;;;;;;;;;;10434904;28;20076;-81
2023/08/31 09:10:09;;;;;;;;;;;;;;;;;;10442586;28;20072;-81
2023/08/31 09:15:14;;;;;;;2.47;1.20;;;;;;;;;;10437469;28;19932;-80
2023/08/31 09:20:17;;;;;;;2.85;0.98;;;;;;;;;;10446313;28;20064;-80
2023/08/31 09:25:20;;;;;;;3.80;1.37;;;;;;;;;;10437635;28;20062;-80
2023/08/31 09:30:24;;;;;;;4.70;1.60;;;;;;;;;;10442885;28;20064;-80
2023/08/31 09:35:31;;;;;;;3.55;1.90;;;;;;;;;;10439278;28;20701;-80
2023/08/31 09:40:34;;;;;;;1.95;1.30;;;;;;;;;;10436788;28;20489;-80
2023/08/31 09:45:39;;;;;;;5.10;1.67;;;;;;;;;;10440245;28;20134;-80
2023/08/31 09:50:48;;;;;;;3.13;1.80;;;;;;;;;;10436082;28;20114;-79
2023/08/31 09:55:52;;;;;;;2.97;1.40;;;;;;;;;;10442429;28;20164;-79
2023/08/31 10:00:59;;;;;;;3.08;1.52;;;;;;;;;;10439328;28;20113;-80
2023/08/31 10:06:02;;;;;;;3.40;1.25;;;;;;;;;;10439130;28;20044;-80
2023/08/31 10:11:06;;;;;;;3.20;1.63;;;;;;;;;;10440915;28;20132;-80
2023/08/31 10:16:10;;;;;;;2.55;1.42;;;;;;;;;;10442029;28;20811;-80
2023/08/31 10:21:13;;;;;;;;;;;;;;;;;;10443852;28;20051;-77
2023/08/31 10:26:23;;;;;;;1.90;1.30;;;;;;;;;;10435371;28;19921;-76
2023/08/31 10:31:30;;;;;;;2.65;1.27;;;;;;;;;;10442385;28;20042;-80
2023/08/31 10:36:37;;;;;;;1.77;1.23;;;;;;;;;;10438248;28;20049;-79
2023/08/31 10:41:40;;;;;;;3.05;1.50;;;;;;;;;;10439949;28;20036;-80
2023/08/31 10:46:44;;;;;;;1.85;1.20;;;;;;;;;;10438627;28;20080;-79
2023/08/31 10:51:47;;;;;;;3.50;1.52;;;;;;;;;;10447265;28;20052;-79
2023/08/31 10:56:56;;;;;;;4.35;1.70;;;;;;;;;;10447200;28;20033;-79
2023/08/31 11:02:02;;;;;;;4.45;1.90;;;;;;;;;;10447941;28;20046;-80
2023/08/31 11:07:17;;;;;;;2.88;1.70;;;;;;;;;;10445251;28;20076;-79
2023/08/31 11:12:22;;;;;;;4.85;1.90;;;;;;;;;;10442437;28;20048;-80
2023/08/31 11:17:26;;;;;;;3.45;1.73;;;;;;;;;;10442289;28;20053;-84
2023/08/31 11:22:32;;;;;;;4.63;2.20;;;;;;;;;;10439427;28;20457;-81
2023/08/31 11:27:35;;;;;;;5.35;2.40;;;;;;;;;;10439371;28;20437;-83
2023/08/31 11:32:44;;;;;;;5.50;2.40;;;;;;;;;;10439589;28;20433;-82
2023/08/31 11:37:51;;;;;;;6.60;2.30;;;;;;;;;;10431582;28;20433;-83
2023/08/31 11:42:53;;;;;;;5.43;2.30;;;;;;;;;;10436996;28;20433;-83
2023/08/31 11:47:58;;;;;;;6.40;2.20;;;;;;;;;;10440544;28;20480;-83
2023/08/31 11:53:00;;;;;;;6.80;2.42;;;;;;;;;;10436901;28;20794;-84
2023/08/31 11:58:04;;;;;;;5.22;2.38;;;;;;;;;;10437826;28;20445;-84
2023/08/31 12:03:09;;;;;;;4.82;2.17;;;;;;;;;;10435635;28;20451;-84
2023/08/31 12:08:12;;;;;;;5.57;2.40;;;;;;;;;;10434307;28;20527;-84
2023/08/31 12:13:14;;;;;;;5.53;2.60;;;;;;;;;;10438881;28;20915;-84
2023/08/31 12:18:19;;;;;;;4.38;2.50;;;;;;;;;;10444540;28;20445;-85
2023/08/31 12:23:22;;;;;;;3.38;2.10;;;;;;;;;;10437732;28;20536;-85
2023/08/31 12:28:27;;;;;;;3.22;2.10;;;;;;;;;;10442355;28;20536;-84
2023/08/31 12:33:31;;;;;;;4.00;2.17;;;;;;;;;;10443234;28;20428;-84
2023/08/31 12:38:34;;;;;;;3.00;1.55;;;;;;;;;;10447489;28;20621;-84
2023/08/31 12:43:37;;;;;;;4.90;2.00;;;;;;;;;;10448366;28;21081;-84
2023/08/31 12:48:41;;;;;;;5.18;1.98;;;;;;;;;;10437219;28;20437;-83
2023/08/31 12:53:43;;;;;;;5.45;1.80;;;;;;;;;;10449432;28;20428;-85
2023/08/31 12:58:49;;;;;;;5.65;2.00;;;;;;;;;;10441622;28;20425;-85
2023/08/31 13:03:53;;;;;;;5.40;2.00;;;;;;;;;;10438871;28;20434;-84
2023/08/31 13:08:56;;;;;;;3.13;1.80;;;;;;;;;;10443854;28;20474;-84
2023/08/31 13:13:59;;;;;;;6.22;2.15;;;;;;;;;;10443452;28;20526;-84
2023/08/31 13:19:03;;;;;;;4.35;2.30;;;;;;;;;;10438725;28;20450;-85
2023/08/31 13:24:06;;;;;;;4.63;2.00;;;;;;;;;;10440361;28;20455;-84
2023/08/31 13:29:08;;;;;;;4.22;2.15;;;;;;;;;;10443630;28;20544;-84
2023/08/31 13:34:13;;;;;;;4.22;1.98;;;;;;;;;;10440622;28;20501;-83
2023/08/31 13:39:21;;;;;;;7.23;2.47;;;;;;;;;;10435429;28;20537;-84
2023/08/31 13:44:23;;;;;;;7.15;2.28;;;;;;;;;;10439765;28;20431;-83
2023/08/31 13:49:28;;;;;;;5.88;2.15;;;;;;;;;;10439374;28;20508;-83
2023/08/31 13:54:30;;;;;;;2.70;1.70;;;;;;;;;;10440840;28;20526;-84
2023/08/31 13:59:33;;;;;;;4.37;1.93;;;;;;;;;;10437332;28;20482;-84
2023/08/31 14:04:37;;;;;;;3.30;1.88;;;;;;;;;;10439424;28;20429;-84
2023/08/31 14:09:40;;;;;;;4.63;1.80;;;;;;;;;;10439912;28;20464;-85
2023/08/31 14:14:43;;;;;;;3.17;1.85;;;;;;;;;;10437782;28;20490;-84
2023/08/31 14:19:47;;;;;;;6.38;1.98;;;;;;;;;;10454138;28;20950;-85
2023/08/31 14:24:50;;;;;;;3.38;2.00;;;;;;;;;;10447187;28;20965;-84
2023/08/31 14:29:52;;;;;;;4.23;1.90;;;;;;;;;;10443783;28;20482;-85
2023/08/31 14:34:56;;;;;;;5.30;2.00;;;;;;;;;;10446692;28;20442;-86
2023/08/31 14:39:59;;;;;;;5.15;2.00;;;;;;;;;;10455723;28;20467;-85
2023/08/31 14:45:02;;;;;;;5.15;1.80;;;;;;;;;;10461824;28;20425;-84
2023/08/31 14:50:06;;;;;;;7.85;2.05;;;;;;;;;;10464601;28;20453;-84
2023/08/31 14:55:10;;;;;;;4.78;1.80;;;;;;;;;;10484858;28;20413;-85
2023/08/31 15:00:14;;;;;;;6.20;2.03;;;;;;;;;;10439423;28;20425;-84
2023/08/31 15:05:24;;;;;;;5.07;1.90;;;;;;;;;;10435934;28;20417;-83
2023/08/31 15:10:27;;;;;;;4.30;1.83;;;;;;;;;;10438541;28;20491;-83
2023/08/31 15:15:30;;;;;;;5.10;2.20;;;;;;;;;;10439205;28;20439;-84
2023/08/31 15:20:37;;;;;;;4.00;1.80;;;;;;;;;;10434569;28;20933;-84
2023/08/31 15:25:46;;;;;;;4.57;1.80;;;;;;;;;;10448972;28;20425;-83
2023/08/31 15:30:49;;;;;;;5.15;1.95;;;;;;;;;;10435659;28;20497;-85
2023/08/31 15:36:02;;;;;;;4.73;1.70;;;;;;;;;;10436982;28;20527;-85
2023/08/31 15:41:05;;;;;;;4.78;1.40;;;;;;;;;;10434669;28;20437;-84
2023/08/31 15:46:08;;;;;;;3.23;1.70;;;;;;;;;;10443959;28;20998;-84
2023/08/31 15:51:12;;;;;;;3.33;1.70;;;;;;;;;;10438672;28;20774;-84
2023/08/31 15:56:18;;;;;;;6.30;2.03;;;;;;;;;;10439187;28;20501;-83
2023/08/31 16:01:20;;;;;;;6.55;2.08;;;;;;;;;;10444794;28;20520;-84
2023/08/31 16:06:24;;;;;;;5.22;1.85;;;;;;;;;;10444714;28;20435;-83
2023/08/31 16:11:27;;;;;;;4.53;1.85;;;;;;;;;;10447739;28;21279;-83
2023/08/31 16:16:30;;;;;;;3.05;1.80;;;;;;;;;;10449498;28;20807;-83
2023/08/31 16:21:34;;;;;;;5.90;2.20;;;;;;;;;;10447614;28;20536;-83
2023/08/31 16:26:36;;;;;;;4.30;2.00;;;;;;;;;;10447689;28;20550;-83
2023/08/31 16:31:39;;;;;;;4.95;2.03;;;;;;;;;;10440121;28;20464;-84
2023/08/31 16:36:43;;;;;;;4.37;1.90;;;;;;;;;;10438519;28;20460;-84
2023/08/31 16:41:46;;;;;;;5.40;2.13;;;;;;;;;;10445419;28;20873;-84
2023/08/31 16:46:52;;;;;;;4.55;1.88;;;;;;;;;;10438858;28;20437;-83
2023/08/31 16:51:56;;;;;;;3.90;2.00;;;;;;;;;;10441082;28;20420;-83
2023/08/31 16:56:59;;;;;;;6.13;2.20;;;;;;;;;;10438593;28;20516;-83
2023/08/31 17:02:02;;;;;;;5.50;1.92;;;;;;;;;;10438492;28;20481;-86
2023/08/31 17:07:07;;;;;;;4.70;2.20;;;;;;;;;;10443313;28;20451;-84
2023/08/31 17:12:09;;;;;;;4.82;1.92;;;;;;;;;;10442996;28;20922;-83
2023/08/31 17:17:12;;;;;;;8.23;3.17;;;;;;;;;;10436458;28;20460;-83
2023/08/31 17:22:16;;;;;;;4.82;2.00;;;;;;;;;;10434496;28;20424;-83
2023/08/31 17:27:20;;;;;;;6.15;2.05;;;;;;;;;;10445303;28;20428;-91
2023/08/31 17:32:23;;;;;;;5.20;2.20;;;;;;;;;;10440959;28;20961;-82
2023/08/31 17:37:27;;;;;;;5.18;2.05;;;;;;;;;;10445544;28;20929;-82
2023/08/31 17:42:30;;;;;;;5.82;2.20;;;;;;;;;;10440591;28;20432;-82
2023/08/31 17:47:32;;;;;;;6.07;2.07;;;;;;;;;;10446299;28;20460;-84
2023/08/31 17:52:37;;;;;;;8.60;3.45;;;;;;;;;;10439384;28;20780;-82
2023/08/31 17:57:41;;;;;;;8.90;3.00;;;;;;;;;;10441387;28;20490;-82
2023/08/31 18:02:44;;;;;;;10.82;5.28;;;;;;;;;;10438637;28;20553;-83
2023/08/31 18:07:48;;;;;;;6.57;3.07;;;;;;;;;;10443454;28;20832;-83
2023/08/31 18:12:53;;;;;;;7.00;3.53;;;;;;;;;;10442987;28;20420;-83
2023/08/31 18:17:55;;;;;;;6.35;2.78;;;;;;;;;;10441284;28;20482;-82
2023/08/31 18:22:59;;;;;;;5.35;2.47;;;;;;;;;;10442001;28;20490;-83
2023/08/31 18:28:02;;;;;;;9.27;4.18;;;;;;;;;;10434451;28;20423;-83
2023/08/31 18:33:05;;;;;;;6.13;2.53;;;;;;;;;;10439689;28;20425;-84
2023/08/31 18:38:09;;;;;;;4.67;1.90;;;;;;;;;;10437774;28;20897;-83
2023/08/31 18:43:12;;;;;;;7.35;2.75;;;;;;;;;;10437693;28;20512;-84
2023/08/31 18:48:15;;;;;;;5.13;2.55;;;;;;;;;;10438533;28;20433;-84
2023/08/31 18:53:19;;;;;;;5.68;2.78;;;;;;;;;;10446195;28;20479;-83
2023/08/31 18:58:22;;;;;;;5.80;2.50;;;;;;;;;;10437474;28;20468;-84
2023/08/31 19:03:25;;;;;;;7.22;2.90;;;;;;;;;;10447760;28;20483;-83
2023/08/31 19:08:30;;;;;;;7.17;2.67;;;;;;;;;;10437998;28;20421;-84
2023/08/31 19:13:32;;;;;;;4.93;2.45;;;;;;;;;;10444311;28;20421;-82
2023/08/31 19:18:37;;;;;;;7.67;2.40;;;;;;;;;;10441442;28;20520;-83
2023/08/31 19:23:41;;;;;;;7.40;2.40;;;;;;;;;;10438471;28;20427;-84
2023/08/31 19:28:43;;;;;;;5.30;2.13;;;;;;;;;;10437311;28;20607;-84
2023/08/31 19:33:46;;;;;;;6.40;2.38;;;;;;;;;;10450855;28;20437;-83
2023/08/31 19:38:52;;;;;;;8.18;2.75;;;;;;;;;;10437484;28;20425;-81
2023/08/31 19:43:55;;;;;;;5.38;2.60;;;;;;;;;;10439974;28;20427;-81
2023/08/31 19:49:00;;;;;;;5.60;2.40;;;;;;;;;;10434995;28;20462;-81
2023/08/31 19:54:04;;;;;;;7.57;2.97;;;;;;;;;;10438196;28;20781;-81
2023/08/31 19:59:08;;;;;;;6.37;2.43;;;;;;;;;;10439358;28;20429;-81
2023/08/31 20:04:11;;;;;;;4.32;2.17;;;;;;;;;;10439798;28;20898;-81
2023/08/31 20:09:15;;;;;;;5.25;2.30;;;;;;;;;;10437031;28;20576;-81
2023/08/31 20:14:18;;;;;;;3.95;2.03;;;;;;;;;;10433031;28;20463;-81
2023/08/31 20:19:21;;;;;;;5.55;2.33;;;;;;;;;;10433398;28;20449;-81
2023/08/31 20:24:25;;;;;;;5.00;2.07;;;;;;;;;;10444119;28;20443;-83
2023/08/31 20:29:27;;;;;;;4.88;2.40;;;;;;;;;;10459153;28;20413;-80
2023/08/31 20:34:30;;;;;;;7.45;2.40;;;;;;;;;;10473663;28;20428;-80
2023/08/31 20:39:38;;;;;;;4.13;2.28;;;;;;;;;;10467158;28;20508;-81
2023/08/31 20:44:41;;;;;;;6.88;2.40;;;;;;;;;;10467507;28;20429;-79
2023/08/31 20:49:43;;;;;;;5.40;2.20;;;;;;;;;;10474117;28;20414;-80
2023/08/31 20:54:54;;;;;;;5.97;2.40;;;;;;;;;;10460773;28;20464;-80
2023/08/31 20:59:59;;;;;;;5.40;2.20;;;;;;;;;;10449695;28;21337;-79
2023/08/31 21:05:04;;;;;;;5.63;2.20;;;;;;;;;;10450613;28;20457;-80
2023/08/31 21:10:08;;;;;;;6.10;2.40;;;;;;;;;;10456626;28;20794;-81
2023/08/31 21:15:11;;;;;;;4.63;2.30;;;;;;;;;;10450518;28;20426;-80
2023/08/31 21:20:14;;;;;;;5.63;2.40;;;;;;;;;;10447784;28;20522;-79
2023/08/31 21:25:18;;;;;;;4.20;2.10;;;;;;;;;;10440351;28;20511;-80
2023/08/31 21:30:21;;;;;;;6.07;2.70;;;;;;;;;;10438733;28;20933;-80
2023/08/31 21:35:23;;;;;;;6.63;2.60;;;;;;;;;;10434317;28;20504;-83
2023/08/31 21:40:28;;;;;;;4.80;2.50;;;;;;;;;;10433833;28;20853;-81
2023/08/31 21:45:30;;;;;;;5.32;2.20;;;;;;;;;;10437146;28;20490;-81
2023/08/31 21:50:34;;;;;;;4.88;2.45;;;;;;;;;;10443821;28;20444;-77
2023/08/31 21:55:38;;;;;;;4.70;2.35;;;;;;;;;;10442903;28;20937;-80
2023/08/31 22:00:41;;;;;;;6.03;2.90;;;;;;;;;;10435115;28;20432;-80
2023/08/31 22:05:44;;;;;;;4.38;2.40;;;;;;;;;;10439595;28;20474;-80
2023/08/31 22:10:49;;;;;;;5.65;2.70;;;;;;;;;;10441622;28;20439;-79
2023/08/31 22:15:52;;;;;;;5.37;2.47;;;;;;;;;;10432950;28;20561;-79
2023/08/31 22:20:55;;;;;;;5.77;2.40;;;;;;;;;;10435519;28;20564;-79
2023/08/31 22:25:59;;;;;;;5.82;2.50;;;;;;;;;;10437764;28;20545;-79
2023/08/31 22:31:03;;;;;;;5.35;2.75;;;;;;;;;;10435525;28;20422;-79
2023/08/31 22:36:06;;;;;;;5.80;2.30;;;;;;;;;;10437501;28;20929;-78
2023/08/31 22:41:10;;;;;;;6.28;2.53;;;;;;;;;;10433267;28;20466;-78
2023/08/31 22:46:12;;;;;;;2.70;1.80;;;;;;;;;;10433653;28;20105;-78
2023/08/31 22:51:15;;;;;;;3.80;1.47;;;;;;;;;;10439833;28;20060;-77
2023/08/31 22:56:19;;;;;;;4.23;1.53;;;;;;;;;;10434200;28;20304;-79
2023/08/31 23:01:22;;;;;;;3.22;1.85;;;;;;;;;;10445345;28;20136;-79
2023/08/31 23:06:25;;;;;;;6.72;2.60;;;;;;;;;;10438313;28;20041;-78
2023/08/31 23:11:29;;;;;;;5.38;2.13;;;;;;;;;;10435780;28;20049;-79
2023/08/31 23:16:31;;;;;;;4.70;2.05;;;;;;;;;;10434685;28;20052;-79
2023/08/31 23:21:34;;;;;;;2.95;1.98;;;;;;;;;;10435813;28;20037;-79
2023/08/31 23:26:47;;;;;;;4.25;2.20;;;;;;;;;;10432873;28;20049;-78
2023/08/31 23:31:49;;;;;;;3.65;1.92;;;;;;;;;;10437723;28;20050;-79
2023/08/31 23:36:52;;;;;;;3.38;2.05;;;;;;;;;;10433106;28;20037;-79
2023/08/31 23:41:56;;;;;;;2.65;1.65;;;;;;;;;;10437815;28;20061;-79
2023/08/31 23:46:59;;;;;;;4.10;2.10;;;;;;;;;;10433390;28;20068;-77
2023/08/31 23:52:02;;;;;;;4.43;2.30;;;;;;;;;;10437860;28;20054;-78
2023/08/31 23:57:06;;;;;;;4.38;2.30;;;;;;;;;;10442776;28;20064;-78
